Time;durP1;ratioP1;P1;durP2;ratioP2;P2;SDS_P1;SDS_P2;PMS_P1;PMS_P2;Temp;Humidity;BMP_temperature;BMP_pressure;BME280_temperature;BME280_humidity;BME280_pressure;Samples;Min_cycle;Max_cycle;Signal;HPM_P1;HPM_P2
2023/05/30 00:03:27;;;;;;;16.17;7.13;;;;;;;;;;10168355;28;20046;-72
2023/05/30 00:08:23;;;;;;;19.80;8.10;;;;;;;;;;10174722;28;20038;-72
2023/05/30 00:13:20;;;;;;;13.18;7.70;;;;;;;;;;10164380;28;20038;-72
2023/05/30 00:18:16;;;;;;;17.48;8.77;;;;;;;;;;10174055;28;20045;-73
2023/05/30 00:23:15;;;;;;;14.02;8.00;;;;;;;;;;10161603;28;20129;-72
2023/05/30 00:28:12;;;;;;;19.38;9.00;;;;;;;;;;10165609;28;20049;-72
2023/05/30 00:33:10;;;;;;;20.73;9.63;;;;;;;;;;10165171;28;20096;-72
2023/05/30 00:38:06;;;;;;;13.93;7.85;;;;;;;;;;10175734;28;20117;-71
2023/05/30 00:43:03;;;;;;;22.10;8.00;;;;;;;;;;10160953;28;20073;-72
2023/05/30 00:48:00;;;;;;;13.20;7.70;;;;;;;;;;10162241;28;20053;-72
2023/05/30 00:52:57;;;;;;;14.93;7.35;;;;;;;;;;10164973;28;20050;-72
2023/05/30 00:57:54;;;;;;;19.13;7.88;;;;;;;;;;10170890;28;20042;-72
2023/05/30 01:02:51;;;;;;;14.90;8.27;;;;;;;;;;10164991;28;20081;-72
2023/05/30 01:07:48;;;;;;;14.02;6.72;;;;;;;;;;10168713;28;20049;-73
2023/05/30 01:13:03;;;;;;;11.50;6.93;;;;;;;;;;10174410;28;20389;-72
2023/05/30 01:18:12;;;;;;;14.90;7.55;;;;;;;;;;10175484;28;20045;-72
2023/05/30 01:23:18;;;;;;;12.98;7.35;;;;;;;;;;10163842;28;20042;-72
2023/05/30 01:28:20;;;;;;;17.25;7.78;;;;;;;;;;10163679;28;20046;-73
2023/05/30 01:33:17;;;;;;;;;;;;;;;;;;10175377;28;20043;-72
2023/05/30 01:38:14;;;;;;;12.45;7.15;;;;;;;;;;10180662;28;19972;-72
2023/05/30 01:43:32;;;;;;;15.43;7.65;;;;;;;;;;10163149;28;20046;-73
2023/05/30 01:48:39;;;;;;;13.55;7.25;;;;;;;;;;10176363;28;20042;-72
2023/05/30 01:53:38;;;;;;;15.25;7.05;;;;;;;;;;10181128;28;20093;-72
2023/05/30 01:58:34;;;;;;;15.77;7.10;;;;;;;;;;10169843;28;20052;-72
2023/05/30 02:03:31;;;;;;;13.27;7.15;;;;;;;;;;10174393;28;20073;-72
2023/05/30 02:08:27;;;;;;;12.18;7.60;;;;;;;;;;10170386;28;20553;-73
2023/05/30 02:13:23;;;;;;;10.75;7.53;;;;;;;;;;10168301;28;20750;-73
2023/05/30 02:18:20;;;;;;;14.50;8.00;;;;;;;;;;10173649;28;20412;-73
2023/05/30 02:23:17;;;;;;;17.05;7.90;;;;;;;;;;10162237;28;20093;-72
2023/05/30 02:28:13;;;;;;;12.27;7.10;;;;;;;;;;10172589;28;20038;-72
2023/05/30 02:33:09;;;;;;;12.63;8.23;;;;;;;;;;10176777;28;20104;-72
2023/05/30 02:38:05;;;;;;;18.13;9.10;;;;;;;;;;10169232;28;20046;-72
2023/05/30 02:43:02;;;;;;;16.30;8.32;;;;;;;;;;10173763;28;20046;-72
2023/05/30 02:48:08;;;;;;;15.00;8.48;;;;;;;;;;10164369;28;20073;-72
2023/05/30 02:53:05;;;;;;;14.68;7.47;;;;;;;;;;10170347;28;20046;-72
2023/05/30 02:58:02;;;;;;;19.00;9.15;;;;;;;;;;10170789;28;20133;-72
2023/05/30 03:02:58;;;;;;;16.08;8.95;;;;;;;;;;10175907;28;20047;-72
2023/05/30 03:07:54;;;;;;;16.42;8.45;;;;;;;;;;10172006;28;20611;-72
2023/05/30 03:12:51;;;;;;;19.50;8.90;;;;;;;;;;10170784;28;20073;-73
2023/05/30 03:17:47;;;;;;;15.23;8.15;;;;;;;;;;10170176;28;20048;-72
2023/05/30 03:22:43;;;;;;;17.23;9.27;;;;;;;;;;10169112;28;20057;-72
2023/05/30 03:27:40;;;;;;;11.38;8.05;;;;;;;;;;10163303;28;20056;-72
2023/05/30 03:32:36;;;;;;;10.90;8.85;;;;;;;;;;10164381;28;20058;-72
2023/05/30 03:37:32;;;;;;;13.63;7.75;;;;;;;;;;10158708;28;20401;-72
2023/05/30 03:42:29;;;;;;;13.98;8.02;;;;;;;;;;10171540;28;20115;-73
2023/05/30 03:47:25;;;;;;;14.43;8.77;;;;;;;;;;10163433;28;20046;-72
2023/05/30 03:52:24;;;;;;;15.50;8.40;;;;;;;;;;10161519;28;20138;-72
2023/05/30 03:57:20;;;;;;;18.75;9.82;;;;;;;;;;10173666;28;20056;-72
2023/05/30 04:02:17;;;;;;;14.23;8.63;;;;;;;;;;10174780;28;20502;-72
2023/05/30 04:07:15;;;;;;;20.58;8.75;;;;;;;;;;10175680;28;20048;-73
2023/05/30 04:12:11;;;;;;;21.27;10.00;;;;;;;;;;10173078;28;20459;-72
2023/05/30 04:17:07;;;;;;;15.95;9.30;;;;;;;;;;10159834;28;20089;-72
2023/05/30 04:22:04;;;;;;;15.07;9.80;;;;;;;;;;10165277;28;20054;-72
2023/05/30 04:27:00;;;;;;;18.85;8.68;;;;;;;;;;10166501;28;20042;-72
2023/05/30 04:31:57;;;;;;;15.30;9.77;;;;;;;;;;10178555;28;20054;-72
2023/05/30 04:36:53;;;;;;;18.95;10.32;;;;;;;;;;10168179;28;20084;-73
2023/05/30 04:41:51;;;;;;;18.17;9.93;;;;;;;;;;10170156;28;20064;-72
2023/05/30 04:46:49;;;;;;;22.40;10.82;;;;;;;;;;10168742;28;20053;-72
2023/05/30 04:51:46;;;;;;;17.60;9.50;;;;;;;;;;10172929;28;20132;-73
2023/05/30 04:56:42;;;;;;;21.95;11.05;;;;;;;;;;10170140;28;20634;-72
2023/05/30 05:01:39;;;;;;;17.35;10.48;;;;;;;;;;10175999;28;20073;-72
2023/05/30 05:06:36;;;;;;;15.57;9.70;;;;;;;;;;10171390;28;20642;-72
2023/05/30 05:11:32;;;;;;;21.10;10.00;;;;;;;;;;10175500;28;20042;-72
2023/05/30 05:16:29;;;;;;;14.25;10.25;;;;;;;;;;10181482;28;20050;-72
2023/05/30 05:21:26;;;;;;;19.20;10.60;;;;;;;;;;10176255;28;20038;-72
2023/05/30 05:26:22;;;;;;;18.25;10.57;;;;;;;;;;10174862;28;20475;-72
2023/05/30 05:31:20;;;;;;;19.30;10.77;;;;;;;;;;10179168;28;20104;-72
2023/05/30 05:36:18;;;;;;;24.92;10.85;;;;;;;;;;10171298;28;20043;-72
2023/05/30 05:41:14;;;;;;;20.90;10.35;;;;;;;;;;10166291;28;20042;-73
2023/05/30 05:46:11;;;;;;;17.67;10.38;;;;;;;;;;10178043;28;20514;-71
2023/05/30 05:51:07;;;;;;;27.20;11.38;;;;;;;;;;10169440;28;20501;-73
2023/05/30 05:56:03;;;;;;;22.55;11.02;;;;;;;;;;10170985;28;20046;-72
2023/05/30 06:01:00;;;;;;;16.95;10.63;;;;;;;;;;10180151;28;20054;-72
2023/05/30 06:05:57;;;;;;;18.15;10.35;;;;;;;;;;10180323;28;20050;-73
2023/05/30 06:10:53;;;;;;;20.17;11.38;;;;;;;;;;10166441;28;20050;-72
2023/05/30 06:15:49;;;;;;;17.58;11.05;;;;;;;;;;10167539;28;20044;-73
2023/05/30 06:20:46;;;;;;;16.77;11.13;;;;;;;;;;10177408;28;20070;-73
2023/05/30 06:25:42;;;;;;;13.90;11.55;;;;;;;;;;10170123;28;20050;-73
2023/05/30 06:30:39;;;;;;;14.98;10.25;;;;;;;;;;10175067;28;20112;-72
2023/05/30 06:35:35;;;;;;;18.75;10.85;;;;;;;;;;10167479;28;20057;-73
2023/05/30 06:40:31;;;;;;;13.80;9.52;;;;;;;;;;10166975;28;20112;-73
2023/05/30 06:45:28;;;;;;;17.55;9.88;;;;;;;;;;10167299;28;20058;-73
2023/05/30 06:50:24;;;;;;;16.63;10.52;;;;;;;;;;10164948;28;20121;-73
2023/05/30 06:55:20;;;;;;;15.27;10.52;;;;;;;;;;10170599;28;20132;-72
2023/05/30 07:00:17;;;;;;;14.68;10.60;;;;;;;;;;10159493;28;20068;-72
2023/05/30 07:05:13;;;;;;;16.73;10.52;;;;;;;;;;10171076;28;20053;-72
2023/05/30 07:10:10;;;;;;;15.18;10.68;;;;;;;;;;10165958;28;20507;-72
2023/05/30 07:15:07;;;;;;;19.77;10.98;;;;;;;;;;10166722;28;20407;-72
2023/05/30 07:20:04;;;;;;;12.60;9.73;;;;;;;;;;10168847;28;20404;-72
2023/05/30 07:25:01;;;;;;;19.13;10.95;;;;;;;;;;10173691;28;20081;-73
2023/05/30 07:29:57;;;;;;;17.95;10.15;;;;;;;;;;10170033;28;20073;-74
2023/05/30 07:34:53;;;;;;;14.38;10.32;;;;;;;;;;10171814;28;20709;-73
2023/05/30 07:39:50;;;;;;;25.60;10.35;;;;;;;;;;10171779;28;20042;-73
2023/05/30 07:44:46;;;;;;;15.45;9.70;;;;;;;;;;10167860;28;20532;-72
2023/05/30 07:49:42;;;;;;;18.35;9.18;;;;;;;;;;10173773;28;20498;-72
2023/05/30 07:54:39;;;;;;;18.00;10.65;;;;;;;;;;10161174;28;20088;-72
2023/05/30 07:59:35;;;;;;;13.18;8.90;;;;;;;;;;10170394;28;20397;-72
2023/05/30 08:04:31;;;;;;;15.88;10.65;;;;;;;;;;10170494;28;20050;-72
2023/05/30 08:09:28;;;;;;;18.45;9.25;;;;;;;;;;10167307;28;20504;-72
2023/05/30 08:14:25;;;;;;;15.50;10.50;;;;;;;;;;10166914;28;20066;-72
2023/05/30 08:19:21;;;;;;;20.95;9.82;;;;;;;;;;10176146;28;20050;-72
2023/05/30 08:24:18;;;;;;;10.90;9.10;;;;;;;;;;10165718;28;20046;-72
2023/05/30 08:29:14;;;;;;;15.13;9.38;;;;;;;;;;10167473;28;20046;-72
2023/05/30 08:34:10;;;;;;;15.30;8.65;;;;;;;;;;10175885;28;20042;-72
2023/05/30 08:39:07;;;;;;;15.27;9.27;;;;;;;;;;10164513;28;20105;-73
2023/05/30 08:44:10;;;;;;;14.50;8.13;;;;;;;;;;10164736;28;20057;-72
2023/05/30 08:49:07;;;;;;;15.93;8.30;;;;;;;;;;10163798;28;20097;-72
2023/05/30 08:54:05;;;;;;;12.98;9.15;;;;;;;;;;10170558;28;20508;-72
2023/05/30 08:59:02;;;;;;;11.75;7.97;;;;;;;;;;10174230;28;20507;-72
2023/05/30 09:03:59;;;;;;;14.00;8.90;;;;;;;;;;10165784;28;20052;-73
2023/05/30 09:08:55;;;;;;;13.50;8.70;;;;;;;;;;10173383;28;20511;-72
2023/05/30 09:13:52;;;;;;;12.18;7.82;;;;;;;;;;10160903;28;20057;-72
2023/05/30 09:18:48;;;;;;;12.80;8.18;;;;;;;;;;10173500;28;20057;-73
2023/05/30 09:23:46;;;;;;;12.93;9.35;;;;;;;;;;10168382;28;20515;-73
2023/05/30 09:28:44;;;;;;;14.90;8.15;;;;;;;;;;10160989;28;20041;-73
2023/05/30 09:33:44;;;;;;;19.40;9.38;;;;;;;;;;10171040;28;20089;-72
2023/05/30 09:38:50;;;;;;;10.73;8.45;;;;;;;;;;10163810;28;20065;-73
2023/05/30 09:43:52;;;;;;;11.68;8.75;;;;;;;;;;10165923;28;20522;-73
2023/05/30 09:48:48;;;;;;;11.70;8.73;;;;;;;;;;10169456;28;20444;-72
2023/05/30 09:54:01;;;;;;;10.50;8.23;;;;;;;;;;10177340;28;20571;-72
2023/05/30 09:59:00;;;;;;;15.52;9.32;;;;;;;;;;10174256;28;20050;-73
2023/05/30 10:03:56;;;;;;;12.40;8.88;;;;;;;;;;10166327;28;20077;-73
2023/05/30 10:08:53;;;;;;;11.82;7.70;;;;;;;;;;10170711;28;20051;-73
2023/05/30 10:13:49;;;;;;;13.82;8.32;;;;;;;;;;10182317;28;20471;-73
2023/05/30 10:18:49;;;;;;;9.30;7.57;;;;;;;;;;10166211;28;20743;-73
2023/05/30 10:23:46;;;;;;;14.50;8.07;;;;;;;;;;10170483;28;20054;-72
2023/05/30 10:28:44;;;;;;;11.70;7.82;;;;;;;;;;10170742;28;20527;-73
2023/05/30 10:34:00;;;;;;;12.93;8.07;;;;;;;;;;10177586;28;20085;-73
2023/05/30 10:39:05;;;;;;;10.00;7.30;;;;;;;;;;10175895;28;20056;-73
2023/05/30 10:44:24;;;;;;;12.23;7.72;;;;;;;;;;10177931;28;20058;-72
2023/05/30 10:49:36;;;;;;;13.63;8.20;;;;;;;;;;10165178;28;20042;-72
2023/05/30 10:54:36;;;;;;;13.15;8.30;;;;;;;;;;10178269;28;20045;-73
2023/05/30 10:59:32;;;;;;;21.35;8.05;;;;;;;;;;10164919;28;20057;-73
2023/05/30 11:04:29;;;;;;;14.77;7.82;;;;;;;;;;10175631;28;20080;-73
2023/05/30 11:09:26;;;;;;;10.45;7.63;;;;;;;;;;10161562;28;20450;-73
2023/05/30 11:14:27;;;;;;;10.45;8.00;;;;;;;;;;10167974;28;20545;-73
2023/05/30 11:19:27;;;;;;;8.20;7.22;;;;;;;;;;10166549;28;20038;-73
2023/05/30 11:24:24;;;;;;;11.65;7.90;;;;;;;;;;10172989;28;20046;-72
2023/05/30 11:29:30;;;;;;;11.50;8.35;;;;;;;;;;10171414;28;20511;-74
2023/05/30 11:34:27;;;;;;;10.15;7.50;;;;;;;;;;10161554;28;20046;-74
2023/05/30 11:39:23;;;;;;;11.43;7.50;;;;;;;;;;10173410;28;20049;-73
2023/05/30 11:44:20;;;;;;;12.52;7.85;;;;;;;;;;10167263;28;20046;-73
2023/05/30 11:49:16;;;;;;;10.45;7.68;;;;;;;;;;10172282;28;20038;-73
2023/05/30 11:54:12;;;;;;;13.20;8.52;;;;;;;;;;10163614;28;20049;-73
2023/05/30 11:59:09;;;;;;;13.43;8.13;;;;;;;;;;10173331;28;20124;-73
2023/05/30 12:04:06;;;;;;;11.18;7.15;;;;;;;;;;10173509;28;20042;-74
2023/05/30 12:09:06;;;;;;;13.63;8.90;;;;;;;;;;10160659;28;20042;-73
2023/05/30 12:14:02;;;;;;;8.80;7.70;;;;;;;;;;10165059;28;20129;-72
2023/05/30 12:18:59;;;;;;;18.55;9.05;;;;;;;;;;10160586;28;20054;-73
2023/05/30 12:23:55;;;;;;;9.25;7.78;;;;;;;;;;10166472;28;20042;-73
2023/05/30 12:28:52;;;;;;;11.98;8.07;;;;;;;;;;10162202;28;20038;-73
2023/05/30 12:33:49;;;;;;;10.35;8.43;;;;;;;;;;10170316;28;20051;-74
2023/05/30 12:38:45;;;;;;;9.82;7.18;;;;;;;;;;10167096;28;20053;-72
2023/05/30 12:43:42;;;;;;;10.60;7.72;;;;;;;;;;10166453;28;20121;-74
2023/05/30 12:48:41;;;;;;;9.93;7.43;;;;;;;;;;10170724;28;20038;-73
2023/05/30 12:53:37;;;;;;;14.20;7.45;;;;;;;;;;10163141;28;20054;-72
2023/05/30 12:58:33;;;;;;;11.10;7.63;;;;;;;;;;10162208;28;20564;-73
2023/05/30 13:03:30;;;;;;;9.20;7.32;;;;;;;;;;10163631;28;20070;-73
2023/05/30 13:08:26;;;;;;;14.63;8.27;;;;;;;;;;10172972;28;20495;-73
2023/05/30 13:13:23;;;;;;;13.10;8.98;;;;;;;;;;10175446;28;20058;-74
2023/05/30 13:18:19;;;;;;;13.05;7.60;;;;;;;;;;10176518;28;20089;-72
2023/05/30 13:23:15;;;;;;;11.60;7.60;;;;;;;;;;10175662;28;20045;-72
2023/05/30 13:28:12;;;;;;;18.35;8.52;;;;;;;;;;10174301;28;20065;-72
2023/05/30 13:33:11;;;;;;;10.82;7.70;;;;;;;;;;10175256;28;20039;-72
2023/05/30 13:38:09;;;;;;;15.10;8.05;;;;;;;;;;10166398;28;20556;-73
2023/05/30 13:43:05;;;;;;;11.80;7.53;;;;;;;;;;10163081;28;20112;-73
2023/05/30 13:48:02;;;;;;;10.00;6.93;;;;;;;;;;10163365;28;20042;-73
2023/05/30 13:52:58;;;;;;;12.88;7.60;;;;;;;;;;10172390;28;20073;-73
2023/05/30 13:57:54;;;;;;;8.88;7.22;;;;;;;;;;10159968;28;20050;-73
2023/05/30 14:02:51;;;;;;;15.70;7.85;;;;;;;;;;10179410;28;20050;-73
2023/05/30 14:07:48;;;;;;;10.00;6.97;;;;;;;;;;10166440;28;20134;-73
2023/05/30 14:12:51;;;;;;;6.80;6.10;;;;;;;;;;10170843;28;20482;-73
2023/05/30 14:17:48;;;;;;;11.63;7.88;;;;;;;;;;10164753;28;20108;-72
2023/05/30 14:22:44;;;;;;;12.95;7.68;;;;;;;;;;10177252;28;20053;-73
2023/05/30 14:27:50;;;;;;;13.45;8.05;;;;;;;;;;10171066;28;20053;-72
2023/05/30 14:32:47;;;;;;;11.43;7.78;;;;;;;;;;10169241;28;20056;-72
2023/05/30 14:37:44;;;;;;;7.80;7.00;;;;;;;;;;10163952;28;20060;-73
2023/05/30 14:42:41;;;;;;;10.70;7.63;;;;;;;;;;10167966;28;20100;-72
2023/05/30 14:47:37;;;;;;;9.68;7.07;;;;;;;;;;10164058;28;20066;-72
2023/05/30 14:52:33;;;;;;;11.25;6.85;;;;;;;;;;10164768;28;20062;-73
2023/05/30 14:57:30;;;;;;;10.93;7.55;;;;;;;;;;10180020;28;20050;-73
2023/05/30 15:02:26;;;;;;;12.68;7.65;;;;;;;;;;10175333;28;20073;-72
2023/05/30 15:07:23;;;;;;;8.55;6.65;;;;;;;;;;10172469;28;20065;-73
2023/05/30 15:12:21;;;;;;;9.43;6.63;;;;;;;;;;10163983;28;20038;-72
2023/05/30 15:17:17;;;;;;;9.10;6.70;;;;;;;;;;10166108;28;20687;-74
2023/05/30 15:22:18;;;;;;;10.68;7.10;;;;;;;;;;10177610;28;20054;-73
2023/05/30 15:27:15;;;;;;;9.60;6.80;;;;;;;;;;10175644;28;20073;-73
2023/05/30 15:32:11;;;;;;;10.05;6.97;;;;;;;;;;10162408;28;20054;-73
2023/05/30 15:37:08;;;;;;;10.25;6.72;;;;;;;;;;10180807;28;20061;-73
2023/05/30 15:42:05;;;;;;;10.20;7.10;;;;;;;;;;10170027;28;20496;-73
2023/05/30 15:47:01;;;;;;;8.55;6.93;;;;;;;;;;10162983;28;20108;-73
2023/05/30 15:51:57;;;;;;;9.38;7.00;;;;;;;;;;10166965;28;20417;-73
2023/05/30 15:56:55;;;;;;;8.00;6.88;;;;;;;;;;10166903;28;20046;-73
2023/05/30 16:01:52;;;;;;;8.18;6.75;;;;;;;;;;10165210;28;20041;-74
2023/05/30 16:06:48;;;;;;;10.35;6.53;;;;;;;;;;10173286;28;20504;-73
2023/05/30 16:11:45;;;;;;;8.07;6.90;;;;;;;;;;10160188;28;20460;-73
2023/05/30 16:16:41;;;;;;;9.30;6.97;;;;;;;;;;10157233;28;20100;-73
2023/05/30 16:21:38;;;;;;;7.95;6.68;;;;;;;;;;10156098;28;20073;-74
2023/05/30 16:26:34;;;;;;;7.90;7.10;;;;;;;;;;10166793;28;20073;-73
2023/05/30 16:31:31;;;;;;;8.90;6.45;;;;;;;;;;10176385;28;20050;-73
2023/05/30 16:36:28;;;;;;;7.43;6.72;;;;;;;;;;10175552;28;20054;-73
2023/05/30 16:41:24;;;;;;;12.10;7.32;;;;;;;;;;10166655;28;20479;-72
2023/05/30 16:46:21;;;;;;;7.63;6.85;;;;;;;;;;10168407;28;20393;-74
2023/05/30 16:51:19;;;;;;;10.18;6.57;;;;;;;;;;10178897;28;20562;-73
2023/05/30 16:56:16;;;;;;;9.02;6.70;;;;;;;;;;10171838;28;20134;-74
2023/05/30 17:01:13;;;;;;;8.45;6.10;;;;;;;;;;10168354;28;20043;-73
2023/05/30 17:06:09;;;;;;;9.38;6.30;;;;;;;;;;10174370;28;20068;-73
2023/05/30 17:11:06;;;;;;;10.90;6.03;;;;;;;;;;10174098;28;20100;-73
2023/05/30 17:16:02;;;;;;;11.07;6.60;;;;;;;;;;10171529;28;20057;-73
2023/05/30 17:21:02;;;;;;;7.95;6.43;;;;;;;;;;10180154;28;20083;-74
2023/05/30 17:25:58;;;;;;;8.32;6.13;;;;;;;;;;10173653;28;20050;-75
2023/05/30 17:30:59;;;;;;;7.15;5.53;;;;;;;;;;10179094;28;20050;-75
2023/05/30 17:35:57;;;;;;;5.82;5.00;;;;;;;;;;10179971;28;20069;-74
2023/05/30 17:40:53;;;;;;;7.63;5.28;;;;;;;;;;10181878;28;20096;-75
2023/05/30 17:45:50;;;;;;;6.35;5.53;;;;;;;;;;10178748;28;20050;-75
2023/05/30 17:50:48;;;;;;;8.27;5.70;;;;;;;;;;10171485;28;20054;-73
2023/05/30 17:55:44;;;;;;;7.95;5.30;;;;;;;;;;10158609;28;20453;-75
2023/05/30 18:00:45;;;;;;;6.75;5.28;;;;;;;;;;10167081;28;20046;-75
2023/05/30 18:05:44;;;;;;;8.60;5.60;;;;;;;;;;10160441;28;20054;-75
2023/05/30 18:10:41;;;;;;;9.32;5.47;;;;;;;;;;10156910;28;20054;-75
2023/05/30 18:15:37;;;;;;;5.43;4.53;;;;;;;;;;10158661;28;20188;-75
2023/05/30 18:20:34;;;;;;;6.05;5.03;;;;;;;;;;10158483;28;20501;-75
2023/05/30 18:25:32;;;;;;;7.45;4.90;;;;;;;;;;10152939;28;20115;-75
2023/05/30 18:30:32;;;;;;;5.72;4.88;;;;;;;;;;10156250;28;20058;-75
2023/05/30 18:35:28;;;;;;;8.05;5.30;;;;;;;;;;10158207;28;20053;-75
2023/05/30 18:40:25;;;;;;;8.80;5.13;;;;;;;;;;10165577;28;20105;-74
2023/05/30 18:45:21;;;;;;;6.00;5.40;;;;;;;;;;10158270;28;20391;-74
2023/05/30 18:50:18;;;;;;;8.25;5.28;;;;;;;;;;10157953;28;20042;-75
2023/05/30 18:55:15;;;;;;;8.48;4.75;;;;;;;;;;10154519;28;20137;-74
2023/05/30 19:00:11;;;;;;;6.40;5.10;;;;;;;;;;10152420;28;20100;-74
2023/05/30 19:05:08;;;;;;;9.23;5.40;;;;;;;;;;10154401;28;20046;-74
2023/05/30 19:10:05;;;;;;;5.45;4.95;;;;;;;;;;10155842;28;20042;-74
2023/05/30 19:15:01;;;;;;;7.13;5.60;;;;;;;;;;10162116;28;20046;-75
2023/05/30 19:19:58;;;;;;;6.18;5.10;;;;;;;;;;10158257;28;20507;-74
2023/05/30 19:24:55;;;;;;;8.38;5.18;;;;;;;;;;10153866;28;20577;-74
2023/05/30 19:29:54;;;;;;;6.72;5.07;;;;;;;;;;10158986;28;20104;-74
2023/05/30 19:34:51;;;;;;;8.35;4.63;;;;;;;;;;10158834;28;20053;-74
2023/05/30 19:39:47;;;;;;;8.70;4.55;;;;;;;;;;10158081;28;20053;-74
2023/05/30 19:44:44;;;;;;;5.85;4.63;;;;;;;;;;10161702;28;20109;-74
2023/05/30 19:49:40;;;;;;;7.05;4.70;;;;;;;;;;10161343;28;20675;-73
2023/05/30 19:54:38;;;;;;;6.95;4.72;;;;;;;;;;10164234;28;20034;-73
2023/05/30 19:59:35;;;;;;;8.60;5.00;;;;;;;;;;10160172;28;20041;-68
2023/05/30 20:04:31;;;;;;;6.80;4.72;;;;;;;;;;10169348;28;20050;-69
2023/05/30 20:09:30;;;;;;;7.28;4.50;;;;;;;;;;10162913;28;20051;-67
2023/05/30 20:14:27;;;;;;;6.20;4.40;;;;;;;;;;10160845;28;20088;-67
2023/05/30 20:19:23;;;;;;;8.15;4.82;;;;;;;;;;10157635;28;20644;-67
2023/05/30 20:24:19;;;;;;;7.68;4.38;;;;;;;;;;10166811;28;20449;-67
2023/05/30 20:29:16;;;;;;;9.88;4.20;;;;;;;;;;10159492;28;20050;-67
2023/05/30 20:34:12;;;;;;;6.10;4.15;;;;;;;;;;10158731;28;20038;-68
2023/05/30 20:39:12;;;;;;;6.07;4.28;;;;;;;;;;10153747;28;20050;-69
2023/05/30 20:44:08;;;;;;;6.22;4.65;;;;;;;;;;10154724;28;20057;-68
2023/05/30 20:49:05;;;;;;;6.45;4.32;;;;;;;;;;10161806;28;20405;-68
2023/05/30 20:54:01;;;;;;;5.53;4.40;;;;;;;;;;10158977;28;20522;-68
2023/05/30 20:58:57;;;;;;;8.82;4.13;;;;;;;;;;10154473;28;20046;-68
2023/05/30 21:03:54;;;;;;;6.47;4.30;;;;;;;;;;10156509;28;20088;-67
2023/05/30 21:08:50;;;;;;;7.32;4.10;;;;;;;;;;10161275;28;20070;-67
2023/05/30 21:13:47;;;;;;;6.35;4.68;;;;;;;;;;10167516;28;20128;-65
2023/05/30 21:18:43;;;;;;;7.07;4.75;;;;;;;;;;10157645;28;20144;-67
2023/05/30 21:23:39;;;;;;;7.20;4.35;;;;;;;;;;10163378;28;20109;-66
2023/05/30 21:28:36;;;;;;;7.65;4.70;;;;;;;;;;10173051;28;20116;-66
2023/05/30 21:33:32;;;;;;;6.03;4.60;;;;;;;;;;10170526;28;20101;-67
2023/05/30 21:38:28;;;;;;;8.05;4.80;;;;;;;;;;10167837;28;20077;-67
2023/05/30 21:43:25;;;;;;;9.15;4.93;;;;;;;;;;10178183;28;20073;-67
2023/05/30 21:48:21;;;;;;;7.47;4.07;;;;;;;;;;10163167;28;20077;-66
2023/05/30 21:53:17;;;;;;;7.10;4.28;;;;;;;;;;10160871;28;20046;-67
2023/05/30 21:58:14;;;;;;;6.60;4.20;;;;;;;;;;10160770;28;20054;-68
2023/05/30 22:03:12;;;;;;;8.77;4.75;;;;;;;;;;10160113;28;20042;-67
2023/05/30 22:08:09;;;;;;;8.95;5.05;;;;;;;;;;10174012;28;20049;-67
2023/05/30 22:13:05;;;;;;;7.10;4.43;;;;;;;;;;10167775;28;20042;-69
2023/05/30 22:18:01;;;;;;;6.97;4.63;;;;;;;;;;10179373;28;20099;-69
2023/05/30 22:23:00;;;;;;;7.85;4.60;;;;;;;;;;10161032;28;20054;-69
2023/05/30 22:27:56;;;;;;;8.02;4.30;;;;;;;;;;10164188;28;20057;-68
2023/05/30 22:32:54;;;;;;;6.82;4.78;;;;;;;;;;10154564;28;20046;-68
2023/05/30 22:37:50;;;;;;;5.88;4.22;;;;;;;;;;10164132;28;20508;-68
2023/05/30 22:42:46;;;;;;;7.30;4.50;;;;;;;;;;10163000;28;20141;-68
2023/05/30 22:47:43;;;;;;;7.40;4.93;;;;;;;;;;10162943;28;20080;-68
2023/05/30 22:52:39;;;;;;;10.93;4.72;;;;;;;;;;10167399;28;20133;-67
2023/05/30 22:57:35;;;;;;;6.85;4.50;;;;;;;;;;10163848;28;20510;-66
2023/05/30 23:02:32;;;;;;;9.25;4.93;;;;;;;;;;10158168;28;20057;-66
2023/05/30 23:07:28;;;;;;;9.15;4.05;;;;;;;;;;10160260;28;20054;-66
2023/05/30 23:12:25;;;;;;;7.75;5.03;;;;;;;;;;10158616;28;20058;-66
2023/05/30 23:17:21;;;;;;;6.93;4.85;;;;;;;;;;10153457;28;20570;-66
2023/05/30 23:22:18;;;;;;;7.38;4.97;;;;;;;;;;10167466;28;20104;-67
2023/05/30 23:27:14;;;;;;;11.05;5.32;;;;;;;;;;10162293;28;20054;-67
2023/05/30 23:32:10;;;;;;;6.53;4.68;;;;;;;;;;10165134;28;20073;-67
2023/05/30 23:37:07;;;;;;;9.18;5.38;;;;;;;;;;10151603;28;20054;-66
2023/05/30 23:42:03;;;;;;;6.90;5.47;;;;;;;;;;10151952;28;20056;-66
2023/05/30 23:47:00;;;;;;;7.05;4.93;;;;;;;;;;10157754;28;20046;-66
2023/05/30 23:51:56;;;;;;;9.63;4.80;;;;;;;;;;10153153;28;20053;-66
2023/05/30 23:56:53;;;;;;;9.82;5.15;;;;;;;;;;10164740;28;20042;-66
